createdAt,value
2017-04-20T16:19:26.998Z,13.9
2017-04-20T16:20:36.155Z,13.91
2017-04-20T16:21:45.277Z,13.79
2017-04-20T16:22:54.525Z,13.81
2017-04-20T16:24:03.254Z,13.86
2017-04-20T16:25:12.896Z,13.87
2017-04-20T16:26:22.298Z,13.81
2017-04-20T16:27:31.649Z,13.84
2017-04-20T16:28:41.328Z,13.75
2017-04-20T16:29:50.641Z,13.84
2017-04-20T16:31:00.013Z,13.75
2017-04-20T16:32:09.624Z,13.86
2017-04-20T16:33:18.650Z,13.75
2017-04-20T16:34:27.887Z,13.81
2017-04-20T16:35:36.920Z,13.84
2017-04-20T16:36:45.905Z,13.86
2017-04-20T16:37:54.941Z,13.76
2017-04-20T16:39:03.863Z,13.7
2017-04-20T16:40:12.832Z,13.65
2017-04-20T16:41:21.553Z,13.63
2017-04-20T16:42:32.065Z,13.68
2017-04-20T16:43:43.866Z,13.58
2017-04-20T16:44:53.125Z,13.63
2017-04-20T16:46:02.374Z,13.66
2017-04-20T16:47:11.398Z,13.54
2017-04-20T16:48:20.708Z,13.54
2017-04-20T16:49:29.374Z,13.62
2017-04-20T16:50:38.278Z,13.54
2017-04-20T16:51:47.500Z,13.42
2017-04-20T16:52:56.416Z,13.5
2017-04-20T16:54:05.507Z,13.47
2017-04-20T16:55:15.317Z,13.45
2017-04-20T16:56:24.761Z,13.47
2017-04-20T16:57:33.987Z,13.42
2017-04-20T16:58:43.126Z,13.39
2017-04-20T16:59:52.105Z,13.39
2017-04-20T17:01:01.331Z,13.35
2017-04-20T17:02:11.081Z,13.42
2017-04-20T17:03:20.752Z,13.27
2017-04-20T17:04:29.665Z,13.32
2017-04-20T17:05:38.312Z,13.28
2017-04-20T17:06:47.635Z,13.24
2017-04-20T17:07:56.856Z,13.17
2017-04-20T17:09:05.443Z,13.28
2017-04-20T17:10:14.868Z,13.13
2017-04-20T17:11:23.817Z,13.21
2017-04-20T17:12:32.509Z,13.13
2017-04-20T17:13:41.831Z,13.25
2017-04-20T17:14:52.326Z,13.16
2017-04-20T17:16:01.437Z,13.13
2017-04-20T17:17:10.382Z,13.17
2017-04-20T17:18:19.614Z,13.17
2017-04-20T17:19:28.839Z,13.2
2017-04-20T17:20:37.938Z,13.13
2017-04-20T17:21:47.133Z,13.03
2017-04-20T17:22:56.356Z,13.09
2017-04-20T17:24:06.161Z,13.01
2017-04-20T17:25:15.511Z,13.13
2017-04-20T17:26:24.829Z,13.06
2017-04-20T17:27:34.217Z,12.99
2017-04-20T17:28:43.204Z,13.01
2017-04-20T17:29:52.626Z,12.91
2017-04-20T17:31:02.319Z,12.91
2017-04-20T17:32:11.295Z,12.84
2017-04-20T17:33:20.207Z,12.8
2017-04-20T17:34:29.430Z,12.88
2017-04-20T17:35:38.391Z,12.81
2017-04-20T17:36:47.030Z,12.78
2017-04-20T17:37:56.256Z,12.71
2017-04-20T17:39:04.851Z,12.7
2017-04-20T17:40:13.998Z,12.69
2017-04-20T17:41:22.908Z,12.69
2017-04-20T17:42:31.842Z,12.66
2017-04-20T17:43:40.761Z,12.56
2017-04-20T17:44:49.673Z,12.53
2017-04-20T17:45:58.629Z,12.55
2017-04-20T17:47:07.427Z,12.38
2017-04-20T17:48:16.913Z,12.41
2017-04-20T17:49:25.515Z,12.44
2017-04-20T17:50:34.747Z,12.38
2017-04-20T17:51:44.216Z,12.28
2017-04-20T17:52:53.478Z,12.28
2017-04-20T17:54:03.050Z,12.33
2017-04-20T17:55:12.424Z,12.26
2017-04-20T17:56:21.350Z,12.16
2017-04-20T17:57:30.574Z,12.22
2017-04-20T17:58:39.821Z,12.13
2017-04-20T17:59:48.805Z,12.15
2017-04-20T18:00:57.735Z,12.07
2017-04-20T18:02:07.049Z,12.01
2017-04-20T18:03:16.594Z,12
2017-04-20T18:04:25.933Z,11.89
2017-04-20T18:05:35.246Z,11.82
2017-04-20T18:06:43.873Z,11.79
2017-04-20T18:07:53.206Z,11.78
2017-04-20T18:09:02.460Z,11.84
2017-04-20T18:10:14.744Z,11.66
2017-04-20T18:11:24.197Z,11.68
2017-04-20T18:12:33.243Z,11.68
2017-04-20T18:13:42.541Z,11.59
2017-04-20T18:14:51.619Z,11.6
2017-04-20T18:16:01.193Z,11.51
2017-04-20T18:17:10.511Z,11.46
2017-04-20T18:18:19.864Z,11.41
2017-04-20T18:19:30.641Z,11.41
2017-04-20T18:20:40.432Z,11.39
2017-04-20T18:21:49.663Z,11.26
2017-04-20T18:22:58.832Z,11.26
2017-04-20T18:24:07.429Z,11.2
2017-04-20T18:25:16.502Z,11.24
2017-04-20T18:26:26.024Z,11.15
2017-04-20T18:27:35.687Z,11.09
2017-04-20T18:28:44.511Z,11.06
2017-04-20T18:29:54.532Z,11.05
2017-04-20T18:31:04.083Z,10.91
2017-04-20T18:32:13.385Z,11
2017-04-20T18:33:22.618Z,10.97
2017-04-20T18:34:31.873Z,10.9
2017-04-20T18:35:40.799Z,10.84
2017-04-20T18:36:50.542Z,10.77
2017-04-20T18:37:59.236Z,10.73
2017-04-20T18:39:08.165Z,10.67
2017-04-20T18:40:17.388Z,10.67
2017-04-20T18:41:26.793Z,10.52
2017-04-20T18:42:36.043Z,10.52
2017-04-20T18:43:45.601Z,10.47
2017-04-20T18:44:54.852Z,10.41
2017-04-20T18:46:04.431Z,10.36
2017-04-20T18:47:13.597Z,10.32
2017-04-20T18:48:23.411Z,10.33
2017-04-20T18:49:32.557Z,10.25
2017-04-20T18:50:41.230Z,10.15
2017-04-20T18:51:49.866Z,10.17
2017-04-20T18:52:58.785Z,10.13
2017-04-20T18:54:07.696Z,10.03
2017-04-20T18:55:17.250Z,9.98
2017-04-20T18:56:26.163Z,9.99
2017-04-20T18:57:35.570Z,9.96
2017-04-20T18:58:45.066Z,9.96
2017-04-20T18:59:54.453Z,9.96
2017-04-20T19:01:03.429Z,9.84
2017-04-20T19:02:12.436Z,9.92
2017-04-20T19:03:21.078Z,9.84
2017-04-20T19:04:30.413Z,9.84
2017-04-20T19:05:39.689Z,9.8
2017-04-20T19:06:49.289Z,9.77
2017-04-20T19:07:58.923Z,9.74
2017-04-20T19:09:07.801Z,9.67
2017-04-20T19:10:16.794Z,9.77
2017-04-20T19:11:25.714Z,9.66
2017-04-20T19:12:34.942Z,9.74
2017-04-20T19:13:43.843Z,9.64
2017-04-20T19:14:53.077Z,9.7
2017-04-20T19:16:02.003Z,9.64
2017-04-20T19:17:11.131Z,9.71
2017-04-20T19:18:20.911Z,9.67
2017-04-20T19:19:30.368Z,9.6
2017-04-20T19:20:40.043Z,9.59
2017-04-20T19:21:49.510Z,9.56
2017-04-20T19:22:58.095Z,9.59
2017-04-20T19:24:07.004Z,9.53
2017-04-20T19:25:15.903Z,9.48
2017-04-20T19:26:25.448Z,9.55
2017-04-20T19:27:34.349Z,9.53
2017-04-20T19:28:43.254Z,9.55
2017-04-20T19:29:52.844Z,9.55
2017-04-20T19:31:01.513Z,9.55
2017-04-20T19:32:11.081Z,9.38
2017-04-20T19:33:20.165Z,9.44
2017-04-20T19:34:29.396Z,9.38
2017-04-20T19:35:38.785Z,9.38
2017-04-20T19:36:47.938Z,9.35
2017-04-20T19:37:56.844Z,9.42
2017-04-20T19:39:06.073Z,9.32
2017-04-20T19:40:14.985Z,9.34
2017-04-20T19:41:24.517Z,9.3
2017-04-20T19:42:33.427Z,9.24
2017-04-20T19:43:42.976Z,9.37
2017-04-20T19:44:51.890Z,9.3
2017-04-20T19:46:01.113Z,9.32
2017-04-20T19:47:10.345Z,9.38
2017-04-20T19:48:19.591Z,9.35
2017-04-20T19:49:28.822Z,9.34
2017-04-20T19:50:37.412Z,9.3
2017-04-20T19:51:46.313Z,9.38
2017-04-20T19:52:55.844Z,9.21
2017-04-20T19:54:04.871Z,9.35
2017-04-20T19:55:13.850Z,9.37
2017-04-20T19:56:22.752Z,9.37
2017-04-20T19:57:31.761Z,9.35
2017-04-20T19:58:40.738Z,9.37
2017-04-20T19:59:49.653Z,9.27
2017-04-20T20:00:59.194Z,9.39
2017-04-20T20:02:08.125Z,9.32
2017-04-20T20:03:17.024Z,9.34
2017-04-20T20:04:26.272Z,9.35
2017-04-20T20:05:35.803Z,9.29
2017-04-20T20:06:45.341Z,9.23
2017-04-20T20:07:54.244Z,9.26
2017-04-20T20:09:03.496Z,9.3
2017-04-20T20:10:12.392Z,9.21
2017-04-20T20:11:21.612Z,9.19
2017-04-20T20:12:30.876Z,9.11
2017-04-20T20:13:39.777Z,9.03
2017-04-20T20:14:48.732Z,9.14
2017-04-20T20:15:57.953Z,9.08
2017-04-20T20:17:07.502Z,9.08
2017-04-20T20:18:17.171Z,9.04
2017-04-20T20:19:26.073Z,9.01
2017-04-20T20:20:35.742Z,8.95
2017-04-20T20:21:44.993Z,8.94
2017-04-20T20:22:54.883Z,8.86
2017-04-20T20:24:04.068Z,8.86
2017-04-20T20:25:13.604Z,8.86
2017-04-20T20:26:22.507Z,8.82
2017-04-20T20:27:31.728Z,8.72
2017-04-20T20:28:41.103Z,8.76
2017-04-20T20:29:50.013Z,8.67
2017-04-20T20:30:58.915Z,8.61
2017-04-20T20:32:08.134Z,8.58
2017-04-20T20:33:17.361Z,8.57
2017-04-20T20:34:25.944Z,8.6
2017-04-20T20:35:35.481Z,8.54
2017-04-20T20:36:44.398Z,8.52
2017-04-20T20:37:53.942Z,8.43
2017-04-20T20:39:02.838Z,8.35
2017-04-20T20:40:11.743Z,8.42
2017-04-20T20:41:20.965Z,8.42
2017-04-20T20:42:29.864Z,8.31
2017-04-20T20:43:39.405Z,8.39
2017-04-20T20:44:48.620Z,8.29
2017-04-20T20:45:57.206Z,8.25
2017-04-20T20:47:07.059Z,8.22
2017-04-20T20:48:15.956Z,8.21
2017-04-20T20:49:24.854Z,8.28
2017-04-20T20:50:34.081Z,8.19
2017-04-20T20:51:42.991Z,8.11
2017-04-20T20:52:52.215Z,8.21
2017-04-20T20:54:01.756Z,8.13
2017-04-20T20:55:10.987Z,8.09
2017-04-20T20:56:19.571Z,8.01
2017-04-20T20:57:28.467Z,8.07
2017-04-20T20:58:38.813Z,8.04
2017-04-20T20:59:48.906Z,8.04
2017-04-20T21:00:58.128Z,7.99
2017-04-20T21:02:06.714Z,7.96
2017-04-20T21:03:15.617Z,7.95
2017-04-20T21:04:24.714Z,7.95
2017-04-20T21:05:34.350Z,7.95
2017-04-20T21:06:43.895Z,7.93
2017-04-20T21:07:53.763Z,7.85
2017-04-20T21:09:03.318Z,7.91
2017-04-20T21:10:12.850Z,7.82
2017-04-20T21:11:22.080Z,7.8
2017-04-20T21:12:30.999Z,7.8
2017-04-20T21:13:40.584Z,7.98
2017-04-20T21:14:49.884Z,7.86
2017-04-20T21:15:58.874Z,7.83
2017-04-20T21:17:08.155Z,7.82
2017-04-20T21:18:17.565Z,7.82
2017-04-20T21:19:27.125Z,7.85
2017-04-20T21:20:35.700Z,7.74
2017-04-20T21:21:44.607Z,7.78
2017-04-20T21:22:54.584Z,7.73
2017-04-20T21:24:03.199Z,7.71
2017-04-20T21:25:13.070Z,7.61
2017-04-20T21:26:21.692Z,7.67
2017-04-20T21:27:30.476Z,7.68
2017-04-20T21:28:39.384Z,7.64
2017-04-20T21:29:48.991Z,7.63
2017-04-20T21:30:57.991Z,7.55
2017-04-20T21:32:06.893Z,7.61
2017-04-20T21:33:16.438Z,7.59
2017-04-20T21:34:25.360Z,7.55
2017-04-20T21:35:35.119Z,7.48
2017-04-20T21:36:44.017Z,7.54
2017-04-20T21:37:53.233Z,7.41
2017-04-20T21:39:01.853Z,7.52
2017-04-20T21:40:10.802Z,7.41
2017-04-20T21:41:19.711Z,7.39
2017-04-20T21:42:28.619Z,7.41
2017-04-20T21:43:37.277Z,7.3
2017-04-20T21:44:46.492Z,7.33
2017-04-20T21:45:55.395Z,7.26
2017-04-20T21:47:03.984Z,7.27
2017-04-20T21:48:13.524Z,7.21
2017-04-20T21:49:22.112Z,7.23
2017-04-20T21:50:31.233Z,7.21
2017-04-20T21:51:40.451Z,7.23
2017-04-20T21:52:49.351Z,7.23
2017-04-20T21:53:58.093Z,7.21
2017-04-20T21:55:06.996Z,7.15
2017-04-20T21:56:15.904Z,7.15
2017-04-20T21:57:25.128Z,7.05
2017-04-20T21:58:34.124Z,7.09
2017-04-20T21:59:43.379Z,7.11
2017-04-20T22:00:52.913Z,7.12
2017-04-20T22:02:01.498Z,7.03
2017-04-20T22:03:10.086Z,7.03
2017-04-20T22:04:19.312Z,7.04
2017-04-20T22:05:28.935Z,7
2017-04-20T22:06:38.147Z,7.03
2017-04-20T22:07:47.372Z,6.97
2017-04-20T22:08:56.589Z,6.97
2017-04-20T22:10:05.498Z,7.03
2017-04-20T22:11:15.029Z,6.83
2017-04-20T22:12:23.641Z,6.88
2017-04-20T22:13:32.915Z,6.88
2017-04-20T22:14:42.123Z,6.82
2017-04-20T22:15:51.339Z,6.78
2017-04-20T22:17:00.938Z,6.88
2017-04-20T22:18:09.536Z,6.75
2017-04-20T22:19:18.887Z,6.65
2017-04-20T22:20:28.056Z,6.72
2017-04-20T22:21:37.259Z,6.78
2017-04-20T22:22:46.165Z,6.75
2017-04-20T22:23:55.846Z,6.72
2017-04-20T22:25:05.058Z,6.73
2017-04-20T22:26:14.280Z,6.76
2017-04-20T22:27:23.569Z,6.64
2017-04-20T22:28:32.795Z,6.62
2017-04-20T22:29:42.156Z,6.6
2017-04-20T22:30:51.211Z,6.62
2017-04-20T22:32:01.060Z,6.57
2017-04-20T22:33:10.362Z,6.55
2017-04-20T22:34:19.579Z,6.55
2017-04-20T22:35:28.479Z,6.55
2017-04-20T22:36:37.382Z,6.61
2017-04-20T22:37:46.611Z,6.58
2017-04-20T22:38:55.507Z,6.52
2017-04-20T22:40:04.090Z,6.49
2017-04-20T22:41:13.700Z,6.52
2017-04-20T22:42:22.603Z,6.49
2017-04-20T22:43:31.824Z,6.4
2017-04-20T22:44:40.396Z,6.39
2017-04-20T22:45:48.975Z,6.43
2017-04-20T22:46:57.877Z,6.39
2017-04-20T22:48:06.829Z,6.39
2017-04-20T22:49:16.090Z,6.42
2017-04-20T22:50:25.030Z,6.31
2017-04-20T22:51:33.934Z,6.36
2017-04-20T22:52:42.827Z,6.42
2017-04-20T22:53:52.368Z,6.31
2017-04-20T22:55:01.587Z,6.34
2017-04-20T22:56:10.805Z,6.28
2017-04-20T22:57:19.702Z,6.31
2017-04-20T22:58:29.622Z,6.24
2017-04-20T22:59:38.897Z,6.15
2017-04-20T23:00:48.113Z,6.14
2017-04-20T23:01:57.326Z,6.06
2017-04-20T23:03:06.219Z,6.21
2017-04-20T23:04:15.117Z,6.1
2017-04-20T23:05:23.757Z,6.13
2017-04-20T23:06:33.339Z,6.05
2017-04-20T23:07:42.873Z,6.07
2017-04-20T23:08:52.089Z,5.99
2017-04-20T23:10:00.794Z,6.06
2017-04-20T23:11:09.381Z,6.07
2017-04-20T23:12:18.279Z,6.02
2017-04-20T23:13:27.865Z,6.05
2017-04-20T23:14:37.403Z,5.99
2017-04-20T23:15:46.010Z,6
2017-04-20T23:16:55.230Z,5.95
2017-04-20T23:18:03.899Z,5.98
2017-04-20T23:19:12.797Z,5.91
2017-04-20T23:20:21.384Z,5.89
2017-04-20T23:21:30.709Z,6
2017-04-20T23:22:39.932Z,5.85
2017-04-20T23:23:49.472Z,5.81
2017-04-20T23:24:58.059Z,5.82
2017-04-20T23:26:07.302Z,5.8
2017-04-20T23:27:15.884Z,5.81
2017-04-20T23:28:25.146Z,5.85
2017-04-20T23:29:34.491Z,5.85
2017-04-20T23:30:43.432Z,5.85
2017-04-20T23:31:52.345Z,5.84
2017-04-20T23:33:02.057Z,5.81
2017-04-20T23:34:11.056Z,5.82
2017-04-20T23:35:20.269Z,5.81
2017-04-20T23:36:29.174Z,5.84
2017-04-20T23:37:38.080Z,5.85
2017-04-20T23:38:47.304Z,5.82
2017-04-20T23:39:56.262Z,5.96
2017-04-20T23:41:05.325Z,5.92
2017-04-20T23:42:14.862Z,5.95
2017-04-20T23:43:24.451Z,5.98
2017-04-20T23:44:33.692Z,6.02
2017-04-20T23:45:42.406Z,6.03
2017-04-20T23:46:51.816Z,5.99
2017-04-20T23:48:00.708Z,6.14
2017-04-20T23:49:09.295Z,5.99
2017-04-20T23:50:18.527Z,6.05
2017-04-20T23:51:27.865Z,6.09
2017-04-20T23:52:37.145Z,6.05
2017-04-20T23:53:45.810Z,6.03
2017-04-20T23:54:55.127Z,5.99
2017-04-20T23:56:04.122Z,5.96
2017-04-20T23:57:13.097Z,5.85
2017-04-20T23:58:21.686Z,5.84
2017-04-20T23:59:30.909Z,5.84
